createdAt,value
2023-01-02T00:01:16.734Z,96974.94
2023-01-02T00:04:02.985Z,96964.16
2023-01-02T00:06:48.705Z,96959.97
2023-01-02T00:09:34.565Z,96950.78
2023-01-02T00:12:20.361Z,96955.88
2023-01-02T00:15:06.855Z,96929.44
2023-01-02T00:17:52.718Z,96938.53
2023-01-02T00:20:38.499Z,96955.03
2023-01-02T00:23:24.343Z,96953.22
2023-01-02T00:26:10.366Z,96956.84
2023-01-02T00:28:56.162Z,96955.13
2023-01-02T00:31:42.094Z,96963.22
2023-01-02T00:34:28.981Z,96969.16
2023-01-02T00:37:15.300Z,96975.53
2023-01-02T00:40:01.503Z,96978.94
2023-01-02T00:42:47.220Z,96972.88
2023-01-02T00:45:32.898Z,96987.84
2023-01-02T00:48:18.829Z,96975.81
2023-01-02T00:51:04.652Z,96984.50
2023-01-02T00:53:50.449Z,96980.38
2023-01-02T00:56:36.262Z,96981.84
2023-01-02T00:59:22.162Z,96973.25
2023-01-02T01:02:08.294Z,96977.63
2023-01-02T01:04:54.332Z,96965.66
2023-01-02T01:07:40.215Z,96973.63
2023-01-02T01:10:26.640Z,96973.63
2023-01-02T01:13:12.454Z,96968.59
2023-01-02T01:16:07.510Z,96963.38
2023-01-02T01:18:57.566Z,96955.06
2023-01-02T01:21:43.703Z,96939.75
2023-01-02T01:24:29.367Z,96973.44
2023-01-02T01:27:15.202Z,96958.94
2023-01-02T01:30:01.098Z,96973.81
2023-01-02T01:32:47.177Z,96970.53
2023-01-02T01:35:36.220Z,96956.78
2023-01-02T01:38:22.142Z,96958.97
2023-01-02T01:41:09.370Z,96963.44
2023-01-02T01:44:00.524Z,96949.66
2023-01-02T01:46:47.534Z,96965.59
2023-01-02T01:49:33.649Z,96956.88
2023-01-02T01:52:23.624Z,96943.13
2023-01-02T01:55:15.352Z,96934.34
2023-01-02T01:58:10.067Z,96946.16
2023-01-02T02:00:56.353Z,96956.53
2023-01-02T02:03:43.854Z,96917.59
2023-01-02T02:06:30.374Z,96949.31
2023-01-02T02:09:20.964Z,96949.53
2023-01-02T02:12:08.451Z,96950.66
2023-01-02T02:14:54.533Z,96942.31
2023-01-02T02:17:50.982Z,96947.16
2023-01-02T02:20:41.736Z,96955.34
2023-01-02T02:24:00.696Z,96932.06
2023-01-02T02:27:01.885Z,96952.91
2023-01-02T02:29:54.124Z,96928.56
2023-01-02T02:32:45.940Z,96947.00
2023-01-02T02:35:50.546Z,96949.44
2023-01-02T02:38:54.234Z,96926.63
2023-01-02T02:41:55.372Z,96941.56
2023-01-02T02:45:00.057Z,96945.94
2023-01-02T02:47:49.080Z,96943.53
2023-01-02T02:51:01.960Z,96935.91
2023-01-02T02:53:52.517Z,96938.56
2023-01-02T02:56:39.633Z,96915.56
2023-01-02T02:59:25.501Z,96932.56
2023-01-02T03:02:16.450Z,96925.44
2023-01-02T03:05:06.222Z,96939.28
2023-01-02T03:08:01.984Z,96901.53
2023-01-02T03:10:58.680Z,96929.78
2023-01-02T03:13:53.826Z,96938.22
2023-01-02T03:16:41.568Z,96927.97
2023-01-02T03:19:36.330Z,96926.03
2023-01-02T03:22:27.925Z,96922.66
2023-01-02T03:25:14.881Z,96920.22
2023-01-02T03:28:03.181Z,96932.19
2023-01-02T03:30:52.945Z,96923.38
2023-01-02T03:33:42.827Z,96927.59
2023-01-02T03:36:30.682Z,96945.94
2023-01-02T03:39:19.301Z,96921.22
2023-01-02T03:42:12.303Z,96929.19
2023-01-02T03:45:21.433Z,96936.19
2023-01-02T03:48:14.780Z,96946.88
2023-01-02T03:51:01.308Z,96942.81
2023-01-02T03:53:50.252Z,96947.84
2023-01-02T03:56:53.597Z,96938.72
2023-01-02T04:00:02.967Z,96943.16
2023-01-02T04:03:11.151Z,96953.78
2023-01-02T04:06:05.901Z,96928.44
2023-01-02T04:09:22.626Z,96939.41
2023-01-02T04:12:12.004Z,96941.72
2023-01-02T04:15:04.176Z,96947.13
2023-01-02T04:17:55.174Z,96943.41
2023-01-02T04:20:43.130Z,96947.59
2023-01-02T04:23:34.063Z,96960.28
2023-01-02T04:26:45.693Z,96967.28
2023-01-02T04:29:31.927Z,96958.69
2023-01-02T04:32:28.628Z,96960.16
2023-01-02T04:35:22.742Z,96953.75
2023-01-02T04:38:12.343Z,96957.03
2023-01-02T04:40:58.527Z,96955.56
2023-01-02T04:43:44.398Z,96962.47
2023-01-02T04:46:30.497Z,96959.19
2023-01-02T04:49:16.615Z,96956.06
2023-01-02T04:52:02.343Z,96965.56
2023-01-02T04:54:48.122Z,96965.69
2023-01-02T04:57:34.296Z,96957.59
2023-01-02T05:00:20.456Z,96971.13
2023-01-02T05:03:06.395Z,96971.13
2023-01-02T05:05:59.731Z,96985.44
2023-01-02T05:08:45.989Z,96984.75
2023-01-02T05:11:31.877Z,96956.41
2023-01-02T05:14:17.630Z,96968.22
2023-01-02T05:17:03.556Z,96982.09
2023-01-02T05:19:49.394Z,96991.00
2023-01-02T05:22:54.032Z,96976.38
2023-01-02T05:25:40.160Z,96972.41
2023-01-02T05:28:25.942Z,96980.97
2023-01-02T05:31:12.327Z,96976.16
2023-01-02T05:33:59.315Z,96954.88
2023-01-02T05:36:45.369Z,96974.56
2023-01-02T05:39:31.251Z,96972.25
2023-01-02T05:42:17.040Z,96981.06
2023-01-02T05:45:03.278Z,96960.66
2023-01-02T05:47:49.303Z,96981.31
2023-01-02T05:50:35.055Z,96999.88
2023-01-02T05:53:20.957Z,96998.16
2023-01-02T05:56:12.460Z,96995.75
2023-01-02T05:58:58.673Z,96994.16
2023-01-02T06:01:44.851Z,97010.91
2023-01-02T06:04:30.601Z,96995.34
2023-01-02T06:07:16.487Z,97006.78
2023-01-02T06:10:02.357Z,97010.41
2023-01-02T06:12:48.829Z,97004.25
2023-01-02T06:15:34.704Z,97009.91
2023-01-02T06:18:20.521Z,96994.59
2023-01-02T06:21:12.261Z,97012.06
2023-01-02T06:23:59.126Z,97022.53
2023-01-02T06:26:45.053Z,97025.09
2023-01-02T06:29:30.952Z,96991.53
2023-01-02T06:32:16.911Z,97013.03
2023-01-02T06:35:04.335Z,97013.16
2023-01-02T06:37:50.584Z,96995.50
2023-01-02T06:40:36.336Z,97010.84
2023-01-02T06:43:22.929Z,97016.72
2023-01-02T06:46:10.494Z,96991.38
2023-01-02T06:48:56.630Z,97012.66
2023-01-02T06:51:42.489Z,97017.94
2023-01-02T06:54:28.425Z,97012.97
2023-01-02T06:57:14.149Z,97006.66
2023-01-02T07:00:00.978Z,97012.97
2023-01-02T07:02:46.838Z,97026.94
2023-01-02T07:05:32.475Z,97029.59
2023-01-02T07:08:18.508Z,97032.38
2023-01-02T07:11:10.658Z,97023.91
2023-01-02T07:13:56.778Z,97030.78
2023-01-02T07:16:42.846Z,97038.38
2023-01-02T07:19:28.598Z,97043.56
2023-01-02T07:22:14.869Z,97021.28
2023-01-02T07:25:01.798Z,97046.00
2023-01-02T07:27:48.029Z,97028.75
2023-01-02T07:30:34.011Z,97032.75
2023-01-02T07:33:20.043Z,97043.00
2023-01-02T07:36:12.901Z,97038.78
2023-01-02T07:38:59.148Z,97032.53
2023-01-02T07:41:45.381Z,97028.28
2023-01-02T07:44:35.640Z,97033.59
2023-01-02T07:47:21.788Z,97045.53
2023-01-02T07:50:08.016Z,97031.56
2023-01-02T07:52:54.035Z,97043.84
2023-01-02T07:55:40.028Z,97034.34
2023-01-02T07:58:26.018Z,97043.72
2023-01-02T08:01:13.463Z,97033.03
2023-01-02T08:04:00.136Z,97031.94
2023-01-02T08:06:46.091Z,97031.00
2023-01-02T08:09:31.949Z,97045.84
2023-01-02T08:12:17.867Z,97034.25
2023-01-02T08:15:04.060Z,97028.00
2023-01-02T08:17:50.194Z,97044.19
2023-01-02T08:20:36.037Z,97035.50
2023-01-02T08:23:21.898Z,97041.19
2023-01-02T08:26:09.579Z,97018.84
2023-01-02T08:28:55.737Z,97033.09
2023-01-02T08:31:43.855Z,97036.16
2023-01-02T08:34:30.175Z,97039.94
2023-01-02T08:37:16.046Z,97021.09
2023-01-02T08:40:02.019Z,97033.31
2023-01-02T08:42:47.984Z,97003.53
2023-01-02T08:45:34.187Z,97019.47
2023-01-02T08:48:21.654Z,97012.72
2023-01-02T08:51:08.245Z,97005.59
2023-01-02T08:53:54.312Z,97030.94
2023-01-02T08:56:41.520Z,97018.03
2023-01-02T08:59:28.189Z,96994.66
2023-01-02T09:02:15.259Z,97017.59
2023-01-02T09:05:01.075Z,97001.06
2023-01-02T09:07:46.944Z,97017.81
2023-01-02T09:10:32.721Z,97004.44
2023-01-02T09:13:18.459Z,97000.22
2023-01-02T09:16:05.326Z,96998.78
2023-01-02T09:18:51.817Z,97005.28
2023-01-02T09:21:37.966Z,96995.16
2023-01-02T09:24:23.932Z,96989.38
2023-01-02T09:27:09.681Z,96989.84
2023-01-02T09:29:56.636Z,96996.38
2023-01-02T09:32:42.453Z,96976.81
2023-01-02T09:35:28.281Z,96971.97
2023-01-02T09:38:14.308Z,96980.94
2023-01-02T09:41:01.820Z,96964.50
2023-01-02T09:44:22.001Z,96965.09
2023-01-02T09:47:10.902Z,96960.56
2023-01-02T09:50:01.284Z,96957.22
2023-01-02T09:52:54.629Z,96961.28
2023-01-02T09:55:51.763Z,96944.88
2023-01-02T09:58:49.133Z,96928.47
2023-01-02T10:01:54.055Z,96937.78
2023-01-02T10:04:55.390Z,96941.97
2023-01-02T10:07:50.291Z,96933.50
2023-01-02T10:10:41.256Z,96937.72
2023-01-02T10:16:43.248Z,96919.66
2023-01-02T10:19:41.816Z,96926.38
2023-01-02T10:22:42.192Z,96921.91
2023-01-02T10:25:40.090Z,96918.00
2023-01-02T10:28:46.468Z,96918.88
2023-01-02T10:31:52.010Z,96870.03
2023-01-02T10:34:45.462Z,96895.91
2023-01-02T10:37:31.540Z,96897.34
2023-01-02T10:40:17.370Z,96898.09
2023-01-02T10:43:03.565Z,96887.00
2023-01-02T10:45:49.627Z,96884.44
2023-01-02T10:48:37.475Z,96869.72
2023-01-02T10:51:24.123Z,96879.59
2023-01-02T10:54:10.518Z,96887.78
2023-01-02T10:56:57.790Z,96884.97
2023-01-02T10:59:44.118Z,96877.44
2023-01-02T11:02:41.251Z,96867.81
2023-01-02T11:05:30.325Z,96867.41
2023-01-02T11:08:20.975Z,96867.88
2023-01-02T11:11:17.946Z,96838.69
2023-01-02T11:14:08.534Z,96839.91
2023-01-02T11:17:02.005Z,96846.78
2023-01-02T11:19:51.091Z,96843.28
2023-01-02T11:22:37.400Z,96839.97
2023-01-02T11:25:25.816Z,96839.25
2023-01-02T11:28:21.347Z,96829.84
2023-01-02T11:31:10.122Z,96834.09
2023-01-02T11:34:08.576Z,96818.84
2023-01-02T11:37:02.511Z,96820.13
2023-01-02T11:40:03.294Z,96782.28
2023-01-02T11:43:29.979Z,96805.31
2023-01-02T11:46:36.896Z,96814.00
2023-01-02T11:49:26.307Z,96801.03
2023-01-02T11:52:17.771Z,96808.31
2023-01-02T11:55:14.231Z,96808.31
2023-01-02T11:58:07.401Z,96799.81
2023-01-02T12:00:55.889Z,96792.53
2023-01-02T12:03:41.930Z,96779.38
2023-01-02T12:07:00.225Z,96799.00
2023-01-02T12:09:58.937Z,96764.94
2023-01-02T12:13:06.235Z,96788.53
2023-01-02T12:16:07.797Z,96777.91
2023-01-02T12:19:21.942Z,96771.75
2023-01-02T12:22:36.155Z,96784.91
2023-01-02T12:25:49.699Z,96780.75
2023-01-02T12:28:55.205Z,96772.50
2023-01-02T12:31:55.544Z,96777.25
2023-01-02T12:34:54.773Z,96774.03
2023-01-02T12:37:54.519Z,96770.81
2023-01-02T12:41:12.997Z,96769.00
2023-01-02T12:44:01.929Z,96759.88
2023-01-02T12:47:07.941Z,96752.03
2023-01-02T12:50:22.001Z,96750.78
2023-01-02T12:53:25.232Z,96748.94
2023-01-02T12:56:16.372Z,96734.06
2023-01-02T12:59:25.353Z,96751.00
2023-01-02T13:02:30.134Z,96748.91
2023-01-02T13:05:23.550Z,96751.72
2023-01-02T13:08:19.351Z,96741.06
2023-01-02T13:11:06.039Z,96731.28
2023-01-02T13:13:52.599Z,96735.41
2023-01-02T13:16:38.995Z,96712.22
2023-01-02T13:19:50.503Z,96734.59
2023-01-02T13:22:47.735Z,96726.22
2023-01-02T13:25:45.935Z,96731.09
2023-01-02T13:28:31.971Z,96718.34
2023-01-02T13:31:45.320Z,96724.19
2023-01-02T13:34:29.580Z,96729.59
2023-01-02T13:37:19.102Z,96722.84
2023-01-02T13:40:05.779Z,96712.47
2023-01-02T13:43:00.142Z,96722.19
2023-01-02T13:45:50.169Z,96718.59
2023-01-02T13:48:44.107Z,96730.38
2023-01-02T13:51:35.362Z,96741.13
2023-01-02T13:54:35.380Z,96731.31
2023-01-02T13:57:27.652Z,96735.34
2023-01-02T14:00:16.521Z,96711.06
2023-01-02T14:03:24.004Z,96734.69
2023-01-02T14:06:37.188Z,96729.53
2023-01-02T14:09:24.216Z,96731.81
2023-01-02T14:12:12.726Z,96728.56
2023-01-02T14:14:58.880Z,96720.25
2023-01-02T14:17:59.361Z,96718.69
2023-01-02T14:20:45.571Z,96726.84
2023-01-02T14:24:17.709Z,96724.69
2023-01-02T14:26:59.929Z,96722.91
2023-01-02T14:29:52.832Z,96716.63
2023-01-02T14:32:44.164Z,96728.59
2023-01-02T14:35:33.656Z,96711.28
2023-01-02T14:38:26.280Z,96729.09
2023-01-02T14:41:33.091Z,96721.13
2023-01-02T14:44:19.913Z,96724.22
2023-01-02T14:47:08.328Z,96722.72
2023-01-02T14:49:58.182Z,96709.13
2023-01-02T14:52:49.748Z,96709.59
2023-01-02T14:55:41.882Z,96703.84
2023-01-02T14:58:45.754Z,96714.81
2023-01-02T15:01:42.415Z,96715.81
2023-01-02T15:04:40.891Z,96719.84
2023-01-02T15:07:30.697Z,96722.00
2023-01-02T15:10:19.007Z,96698.56
2023-01-02T15:13:09.257Z,96722.81
2023-01-02T15:16:00.015Z,96718.34
2023-01-02T15:18:46.930Z,96707.97
2023-01-02T15:21:39.716Z,96722.28
2023-01-02T15:24:27.468Z,96698.19
2023-01-02T15:27:23.136Z,96724.97
2023-01-02T15:30:25.163Z,96732.66
2023-01-02T15:33:30.458Z,96713.91
2023-01-02T15:36:34.588Z,96731.16
2023-01-02T15:39:30.050Z,96729.31
2023-01-02T15:42:43.671Z,96723.16
2023-01-02T15:45:30.722Z,96730.44
2023-01-02T15:48:18.973Z,96734.06
2023-01-02T15:51:05.435Z,96732.81
2023-01-02T15:53:59.920Z,96717.53
2023-01-02T15:56:49.485Z,96727.50
2023-01-02T15:59:37.182Z,96731.81
2023-01-02T16:02:35.653Z,96723.69
2023-01-02T16:05:22.310Z,96726.50
2023-01-02T16:08:08.252Z,96739.81
2023-01-02T16:11:01.690Z,96727.06
2023-01-02T16:14:10.047Z,96741.91
2023-01-02T16:17:04.379Z,96740.06
2023-01-02T16:19:58.196Z,96741.75
2023-01-02T16:22:54.667Z,96744.13
2023-01-02T16:25:46.428Z,96725.38
2023-01-02T16:28:42.011Z,96738.38
2023-01-02T16:31:29.039Z,96741.75
2023-01-02T16:34:15.648Z,96743.44
2023-01-02T16:37:16.811Z,96758.84
2023-01-02T16:41:01.296Z,96753.09
2023-01-02T16:43:34.394Z,96744.94
2023-01-02T16:46:22.681Z,96753.91
2023-01-02T16:49:12.120Z,96742.41
2023-01-02T16:51:58.805Z,96750.84
2023-01-02T16:54:47.017Z,96759.78
2023-01-02T16:57:36.886Z,96739.47
2023-01-02T17:00:23.043Z,96755.97
2023-01-02T17:03:15.040Z,96758.78
2023-01-02T17:06:04.676Z,96755.28
2023-01-02T17:08:50.991Z,96758.66
2023-01-02T17:11:37.726Z,96759.06
2023-01-02T17:14:23.486Z,96754.72
2023-01-02T17:17:09.397Z,96750.81
2023-01-02T17:19:55.190Z,96750.22
2023-01-02T17:22:41.525Z,96748.41
2023-01-02T17:25:27.643Z,96751.94
2023-01-02T17:28:14.495Z,96749.53
2023-01-02T17:31:00.611Z,96765.09
2023-01-02T17:33:46.649Z,96770.41
2023-01-02T17:36:32.968Z,96763.28
2023-01-02T17:39:19.159Z,96755.84
2023-01-02T17:42:05.086Z,96757.78
2023-01-02T17:44:51.565Z,96767.44
2023-01-02T17:50:44.065Z,96773.63
2023-01-02T17:53:29.967Z,96766.75
2023-01-02T17:56:22.386Z,96768.81
2023-01-02T17:59:08.884Z,96759.75
2023-01-02T18:01:55.238Z,96758.31
2023-01-02T18:04:46.984Z,96774.03
2023-01-02T18:07:37.275Z,96764.63
2023-01-02T18:10:29.129Z,96741.91
2023-01-02T18:13:18.692Z,96775.28
2023-01-02T18:16:14.581Z,96776.31
2023-01-02T18:19:04.975Z,96740.47
2023-01-02T18:21:51.003Z,96773.66
2023-01-02T18:24:37.217Z,96770.88
2023-01-02T18:27:27.662Z,96770.03
2023-01-02T18:30:17.318Z,96771.84
2023-01-02T18:33:18.519Z,96755.69
2023-01-02T18:36:14.966Z,96780.94
2023-01-02T18:39:25.880Z,96752.16
2023-01-02T18:42:14.712Z,96770.81
2023-01-02T18:45:00.894Z,96767.22
2023-01-02T18:47:50.885Z,96762.59
2023-01-02T18:50:38.074Z,96767.22
2023-01-02T18:53:29.717Z,96766.50
2023-01-02T18:56:27.597Z,96767.47
2023-01-02T18:59:25.424Z,96747.44
2023-01-02T19:02:55.347Z,96763.25
2023-01-02T19:05:45.334Z,96769.88
2023-01-02T19:08:36.479Z,96758.06
2023-01-02T19:11:55.229Z,96758.06
2023-01-02T19:14:43.772Z,96763.97
2023-01-02T19:17:32.447Z,96764.81
2023-01-02T19:20:26.525Z,96751.19
2023-01-02T19:23:32.338Z,96765.22
2023-01-02T19:26:29.986Z,96749.47
2023-01-02T19:29:20.304Z,96756.09
2023-01-02T19:32:28.838Z,96763.09
2023-01-02T19:35:34.534Z,96758.16
2023-01-02T19:38:27.640Z,96756.75
2023-01-02T19:41:13.592Z,96762.59
2023-01-02T19:43:59.946Z,96755.91
2023-01-02T19:46:46.599Z,96732.34
2023-01-02T19:49:32.778Z,96751.97
2023-01-02T19:52:19.850Z,96753.78
2023-01-02T19:55:07.467Z,96755.31
2023-01-02T19:57:53.739Z,96750.25
2023-01-02T20:00:40.002Z,96744.50
2023-01-02T20:03:26.363Z,96744.50
2023-01-02T20:06:12.345Z,96750.94
2023-01-02T20:08:57.844Z,96755.00
2023-01-02T20:12:07.392Z,96750.66
2023-01-02T20:14:54.363Z,96750.78
2023-01-02T20:17:40.961Z,96745.88
2023-01-02T20:20:29.536Z,96739.13
2023-01-02T20:23:15.613Z,96753.00
2023-01-02T20:26:01.695Z,96745.56
2023-01-02T20:28:48.676Z,96753.97
2023-01-02T20:31:34.865Z,96748.81
2023-01-02T20:34:21.127Z,96748.81
2023-01-02T20:37:07.217Z,96738.81
2023-01-02T20:39:53.818Z,96756.31
2023-01-02T20:42:39.859Z,96752.25
2023-01-02T20:45:26.441Z,96746.16
2023-01-02T20:48:12.620Z,96746.28
2023-01-02T20:50:58.878Z,96748.81
2023-01-02T20:53:44.933Z,96746.41
2023-01-02T20:56:30.994Z,96757.44
2023-01-02T20:59:17.240Z,96754.28
2023-01-02T21:02:03.224Z,96763.38
2023-01-02T21:04:49.319Z,96752.91
2023-01-02T21:07:35.284Z,96752.44
2023-01-02T21:10:21.085Z,96764.34
2023-01-02T21:13:11.031Z,96744.34
2023-01-02T21:15:58.085Z,96754.69
2023-01-02T21:18:44.558Z,96751.31
2023-01-02T21:21:30.864Z,96743.16
2023-01-02T21:24:17.046Z,96738.56
2023-01-02T21:27:06.512Z,96753.53
2023-01-02T21:29:55.670Z,96757.16
2023-01-02T21:32:41.758Z,96747.97
2023-01-02T21:35:27.681Z,96752.94
2023-01-02T21:38:14.693Z,96752.31
2023-01-02T21:41:20.524Z,96745.59
2023-01-02T21:44:06.455Z,96753.56
2023-01-02T21:46:52.393Z,96757.16
2023-01-02T21:49:38.186Z,96733.19
2023-01-02T21:52:24.084Z,96732.25
2023-01-02T21:55:10.726Z,96749.19
2023-01-02T21:58:14.590Z,96757.88
2023-01-02T22:01:00.646Z,96749.47
2023-01-02T22:03:47.109Z,96764.41
2023-01-02T22:06:34.287Z,96756.00
2023-01-02T22:09:20.294Z,96753.34
2023-01-02T22:12:07.299Z,96751.06
2023-01-02T22:14:53.619Z,96726.50
2023-01-02T22:17:40.141Z,96750.94
2023-01-02T22:20:26.428Z,96749.63
2023-01-02T22:23:12.192Z,96741.06
2023-01-02T22:25:58.320Z,96745.16
2023-01-02T22:28:44.975Z,96728.19
2023-01-02T22:31:31.025Z,96751.06
2023-01-02T22:34:18.421Z,96750.75
2023-01-02T22:37:05.046Z,96760.25
2023-01-02T22:39:51.042Z,96742.28
2023-01-02T22:43:01.658Z,96753.50
2023-01-02T22:45:50.693Z,96741.59
2023-01-02T22:48:38.269Z,96724.50
2023-01-02T22:51:49.849Z,96747.13
2023-01-02T22:54:30.679Z,96745.31
2023-01-02T22:57:19.206Z,96740.00
2023-01-02T23:00:07.151Z,96736.78
2023-01-02T23:02:53.206Z,96735.34
2023-01-02T23:05:39.095Z,96726.09
2023-01-02T23:08:25.151Z,96732.22
2023-01-02T23:11:11.055Z,96718.28
2023-01-02T23:13:57.295Z,96729.34
2023-01-02T23:17:01.635Z,96732.84
2023-01-02T23:19:47.630Z,96740.81
2023-01-02T23:22:33.382Z,96732.38
2023-01-02T23:25:19.271Z,96736.59
2023-01-02T23:28:05.214Z,96729.03
2023-01-02T23:30:51.327Z,96733.34
2023-01-02T23:33:37.968Z,96735.88
2023-01-02T23:36:24.100Z,96728.44
2023-01-02T23:39:13.149Z,96731.78
2023-01-02T23:41:59.013Z,96735.53
2023-01-02T23:44:44.809Z,96728.56
2023-01-02T23:47:30.755Z,96722.88
2023-01-02T23:50:17.078Z,96735.69
2023-01-02T23:53:03.058Z,96734.09
2023-01-02T23:55:48.922Z,96735.91
2023-01-02T23:58:34.993Z,96729.03
